createdAt,value
2019-03-16T00:00:09.995Z,9.23
2019-03-16T00:01:12.728Z,9.30
2019-03-16T00:02:09.980Z,9.27
2019-03-16T00:03:09.948Z,9.28
2019-03-16T00:04:09.942Z,9.32
2019-03-16T00:05:09.927Z,9.28
2019-03-16T00:06:09.918Z,9.30
2019-03-16T00:07:09.923Z,9.25
2019-03-16T00:08:09.893Z,9.31
2019-03-16T00:09:09.891Z,9.28
2019-03-16T00:10:09.877Z,9.24
2019-03-16T00:11:09.860Z,9.25
2019-03-16T00:12:09.870Z,9.20
2019-03-16T00:13:09.862Z,9.18
2019-03-16T00:14:09.829Z,9.18
2019-03-16T00:15:09.817Z,9.10
2019-03-16T00:16:09.808Z,9.13
2019-03-16T00:17:09.822Z,9.15
2019-03-16T00:18:09.798Z,9.21
2019-03-16T00:19:09.781Z,9.09
2019-03-16T00:20:09.766Z,9.10
2019-03-16T00:21:09.754Z,9.06
2019-03-16T00:22:09.765Z,9.06
2019-03-16T00:23:09.742Z,9.02
2019-03-16T00:24:09.721Z,9.05
2019-03-16T00:25:09.708Z,9.12
2019-03-16T00:26:09.701Z,9.01
2019-03-16T00:27:09.710Z,8.97
2019-03-16T00:28:09.678Z,9.01
2019-03-16T00:29:09.668Z,9.05
2019-03-16T00:30:09.685Z,9.01
2019-03-16T00:31:09.666Z,9.04
2019-03-16T00:32:13.567Z,8.97
2019-03-16T00:33:09.639Z,8.91
2019-03-16T00:34:09.615Z,8.94
2019-03-16T00:35:17.141Z,8.94
2019-03-16T00:36:09.597Z,9.01
2019-03-16T00:37:09.603Z,8.93
2019-03-16T00:38:09.571Z,8.97
2019-03-16T00:39:09.560Z,8.99
2019-03-16T00:40:09.548Z,8.88
2019-03-16T00:41:09.539Z,8.96
2019-03-16T00:42:09.561Z,8.99
2019-03-16T00:43:09.518Z,8.86
2019-03-16T00:44:09.505Z,8.86
2019-03-16T00:45:09.496Z,8.93
2019-03-16T00:46:09.484Z,8.90
2019-03-16T00:47:09.581Z,8.94
2019-03-16T00:48:09.485Z,8.86
2019-03-16T00:49:09.452Z,8.96
2019-03-16T00:50:09.456Z,8.84
2019-03-16T00:51:09.431Z,8.91
2019-03-16T00:52:09.418Z,8.84
2019-03-16T00:53:09.436Z,8.86
2019-03-16T00:54:09.404Z,8.81
2019-03-16T00:55:09.391Z,8.88
2019-03-16T00:56:09.378Z,8.78
2019-03-16T00:57:09.369Z,8.87
2019-03-16T00:58:09.356Z,8.88
2019-03-16T00:59:09.363Z,8.84
2019-03-16T01:00:09.346Z,8.87
2019-03-16T01:01:09.320Z,8.81
2019-03-16T01:02:09.316Z,8.73
2019-03-16T01:03:09.302Z,8.79
2019-03-16T01:04:09.312Z,8.71
2019-03-16T01:05:09.293Z,8.71
2019-03-16T01:06:09.267Z,8.66
2019-03-16T01:07:09.257Z,8.69
2019-03-16T01:08:09.246Z,8.71
2019-03-16T01:09:09.265Z,8.69
2019-03-16T01:10:09.226Z,8.69
2019-03-16T01:11:09.215Z,8.72
2019-03-16T01:12:09.203Z,8.69
2019-03-16T01:13:09.194Z,8.68
2019-03-16T01:14:09.222Z,8.65
2019-03-16T01:15:09.171Z,8.66
2019-03-16T01:16:09.159Z,8.68
2019-03-16T01:17:09.149Z,8.68
2019-03-16T01:18:09.147Z,8.66
2019-03-16T01:19:09.128Z,8.63
2019-03-16T01:20:09.139Z,8.53
2019-03-16T01:21:09.109Z,8.57
2019-03-16T01:22:09.097Z,8.62
2019-03-16T01:23:09.097Z,8.57
2019-03-16T01:24:09.074Z,8.55
2019-03-16T01:25:09.085Z,8.55
2019-03-16T01:26:09.052Z,8.54
2019-03-16T01:27:09.055Z,8.51
2019-03-16T01:28:09.031Z,8.47
2019-03-16T01:29:09.021Z,8.37
2019-03-16T01:30:09.010Z,8.50
2019-03-16T01:31:09.018Z,8.51
2019-03-16T01:32:09.047Z,8.47
2019-03-16T01:33:08.994Z,8.40
2019-03-16T01:34:08.998Z,8.44
2019-03-16T01:35:08.966Z,8.39
2019-03-16T01:36:08.971Z,8.39
2019-03-16T01:37:08.935Z,8.39
2019-03-16T01:38:08.937Z,8.42
2019-03-16T01:39:08.933Z,8.39
2019-03-16T01:40:08.929Z,8.40
2019-03-16T01:41:08.912Z,8.39
2019-03-16T01:42:08.883Z,8.35
2019-03-16T01:43:08.877Z,8.42
2019-03-16T01:44:08.866Z,8.40
2019-03-16T01:45:08.857Z,8.39
2019-03-16T01:46:08.868Z,8.37
2019-03-16T01:47:08.833Z,8.36
2019-03-16T01:48:08.831Z,8.36
2019-03-16T01:49:08.807Z,8.30
2019-03-16T01:50:08.794Z,8.37
2019-03-16T01:51:08.825Z,8.40
2019-03-16T01:52:08.775Z,8.35
2019-03-16T01:53:08.770Z,8.32
2019-03-16T01:54:08.750Z,8.32
2019-03-16T01:55:08.747Z,8.37
2019-03-16T01:56:08.813Z,8.44
2019-03-16T01:57:08.743Z,8.37
2019-03-16T01:58:08.716Z,8.33
2019-03-16T01:59:08.701Z,8.39
2019-03-16T02:00:08.726Z,8.42
2019-03-16T02:01:08.688Z,8.36
2019-03-16T02:02:08.706Z,8.37
2019-03-16T02:03:08.669Z,8.40
2019-03-16T02:04:08.644Z,8.44
2019-03-16T02:05:08.635Z,8.40
2019-03-16T02:06:08.630Z,8.33
2019-03-16T02:07:08.653Z,8.32
2019-03-16T02:08:08.601Z,8.25
2019-03-16T02:09:08.599Z,8.21
2019-03-16T02:10:08.584Z,8.29
2019-03-16T02:11:08.570Z,8.26
2019-03-16T02:12:08.559Z,8.25
2019-03-16T02:13:08.568Z,8.17
2019-03-16T02:14:08.542Z,8.21
2019-03-16T02:15:08.525Z,8.18
2019-03-16T02:16:11.405Z,8.15
2019-03-16T02:17:08.506Z,8.15
2019-03-16T02:18:08.512Z,8.14
2019-03-16T02:19:08.488Z,8.03
2019-03-16T02:20:08.491Z,8.04
2019-03-16T02:21:08.472Z,8.12
2019-03-16T02:22:08.451Z,8.11
2019-03-16T02:23:08.464Z,8.15
2019-03-16T02:24:08.435Z,8.14
2019-03-16T02:25:08.420Z,8.17
2019-03-16T02:26:08.408Z,8.12
2019-03-16T02:27:08.404Z,8.14
2019-03-16T02:28:08.385Z,8.15
2019-03-16T02:29:08.426Z,8.14
2019-03-16T02:30:08.376Z,8.17
2019-03-16T02:31:08.356Z,8.14
2019-03-16T02:32:08.350Z,8.14
2019-03-16T02:33:13.405Z,8.08
2019-03-16T02:34:09.325Z,8.08
2019-03-16T02:35:08.314Z,8.03
2019-03-16T02:36:08.309Z,8.08
2019-03-16T02:37:08.310Z,8.03
2019-03-16T02:38:08.300Z,8.04
2019-03-16T02:39:08.267Z,8.02
2019-03-16T02:40:08.258Z,8.03
2019-03-16T02:41:08.268Z,8.03
2019-03-16T02:42:08.242Z,8.02
2019-03-16T02:43:08.250Z,8.02
2019-03-16T02:44:11.273Z,8.02
2019-03-16T02:45:08.209Z,7.99
2019-03-16T02:46:08.239Z,8.02
2019-03-16T02:47:08.185Z,8.03
2019-03-16T02:48:08.189Z,8.03
2019-03-16T02:49:08.161Z,8.00
2019-03-16T02:50:08.152Z,8.00
2019-03-16T02:51:08.142Z,8.07
2019-03-16T02:52:08.132Z,8.02
2019-03-16T02:53:08.137Z,7.92
2019-03-16T02:54:08.121Z,7.96
2019-03-16T02:55:08.109Z,7.97
2019-03-16T02:56:08.086Z,7.90
2019-03-16T02:57:08.090Z,7.94
2019-03-16T02:58:08.092Z,7.90
2019-03-16T02:59:08.053Z,7.90
2019-03-16T03:00:08.042Z,7.94
2019-03-16T03:01:08.035Z,7.90
2019-03-16T03:02:08.023Z,7.93
2019-03-16T03:03:08.014Z,7.92
2019-03-16T03:04:08.031Z,7.92
2019-03-16T03:05:07.998Z,7.94
2019-03-16T03:06:07.980Z,7.94
2019-03-16T03:07:08.143Z,7.92
2019-03-16T03:08:07.975Z,7.92
2019-03-16T03:09:07.950Z,7.90
2019-03-16T03:10:07.940Z,7.92
2019-03-16T03:11:07.946Z,7.90
2019-03-16T03:12:07.934Z,7.87
2019-03-16T03:13:07.929Z,7.85
2019-03-16T03:14:07.930Z,7.94
2019-03-16T03:15:07.883Z,7.87
2019-03-16T03:16:07.874Z,7.87
2019-03-16T03:17:07.862Z,7.93
2019-03-16T03:18:07.861Z,7.94
2019-03-16T03:19:07.862Z,7.99
2019-03-16T03:20:07.833Z,7.99
2019-03-16T03:21:07.818Z,7.90
2019-03-16T03:22:07.819Z,7.93
2019-03-16T03:23:07.815Z,7.90
2019-03-16T03:24:07.785Z,7.89
2019-03-16T03:25:07.783Z,7.97
2019-03-16T03:26:07.764Z,7.96
2019-03-16T03:27:07.753Z,7.87
2019-03-16T03:28:07.769Z,7.99
2019-03-16T03:29:07.731Z,7.99
2019-03-16T03:30:07.730Z,8.02
2019-03-16T03:31:07.726Z,8.00
2019-03-16T03:32:07.722Z,7.99
2019-03-16T03:33:07.718Z,8.00
2019-03-16T03:34:07.697Z,7.99
2019-03-16T03:35:07.719Z,8.07
2019-03-16T03:36:07.715Z,7.97
2019-03-16T03:37:07.648Z,8.03
2019-03-16T03:38:07.658Z,7.94
2019-03-16T03:39:07.679Z,8.03
2019-03-16T03:40:07.612Z,8.00
2019-03-16T03:41:07.602Z,8.03
2019-03-16T03:42:07.592Z,7.99
2019-03-16T03:43:07.583Z,8.00
2019-03-16T03:44:07.583Z,8.04
2019-03-16T03:45:07.579Z,7.99
2019-03-16T03:46:07.549Z,7.96
2019-03-16T03:47:07.539Z,7.94
2019-03-16T03:48:07.526Z,7.97
2019-03-16T03:49:07.525Z,7.99
2019-03-16T03:50:07.542Z,7.99
2019-03-16T03:51:07.496Z,8.00
2019-03-16T03:52:07.491Z,7.99
2019-03-16T03:53:07.480Z,8.02
2019-03-16T03:54:07.481Z,8.03
2019-03-16T03:55:07.479Z,8.02
2019-03-16T03:56:07.441Z,7.96
2019-03-16T03:57:07.431Z,8.00
2019-03-16T03:58:07.424Z,8.00
2019-03-16T03:59:07.413Z,8.02
2019-03-16T04:00:07.424Z,7.96
2019-03-16T04:01:07.387Z,8.07
2019-03-16T04:02:07.376Z,8.07
2019-03-16T04:03:07.380Z,8.03
2019-03-16T04:04:15.015Z,8.04
2019-03-16T04:05:09.893Z,7.96
2019-03-16T04:06:07.338Z,7.94
2019-03-16T04:07:07.347Z,7.92
2019-03-16T04:08:07.312Z,7.94
2019-03-16T04:09:07.313Z,7.85
2019-03-16T04:10:07.295Z,7.97
2019-03-16T04:11:07.300Z,8.00
2019-03-16T04:12:07.281Z,7.87
2019-03-16T04:13:07.258Z,8.02
2019-03-16T04:14:07.252Z,8.00
2019-03-16T04:15:07.237Z,8.02
2019-03-16T04:16:07.245Z,7.99
2019-03-16T04:17:07.219Z,8.00
2019-03-16T04:18:07.204Z,8.02
2019-03-16T04:19:07.193Z,8.02
2019-03-16T04:20:07.192Z,8.04
2019-03-16T04:21:07.192Z,8.02
2019-03-16T04:22:07.163Z,8.00
2019-03-16T04:23:07.162Z,8.00
2019-03-16T04:24:07.138Z,8.10
2019-03-16T04:25:07.129Z,8.00
2019-03-16T04:26:07.136Z,8.00
2019-03-16T04:27:15.911Z,7.97
2019-03-16T04:28:08.097Z,7.97
2019-03-16T04:29:07.087Z,8.07
2019-03-16T04:30:07.083Z,7.96
2019-03-16T04:31:07.096Z,8.02
2019-03-16T04:32:07.060Z,7.99
2019-03-16T04:33:07.052Z,8.03
2019-03-16T04:34:07.041Z,8.02
2019-03-16T04:35:07.046Z,8.00
2019-03-16T04:36:07.044Z,8.02
2019-03-16T04:37:07.005Z,8.00
2019-03-16T04:38:06.992Z,7.97
2019-03-16T04:39:06.987Z,8.02
2019-03-16T04:40:06.969Z,7.97
2019-03-16T04:41:06.974Z,7.96
2019-03-16T04:42:06.950Z,7.99
2019-03-16T04:43:06.937Z,7.99
2019-03-16T04:44:06.928Z,8.00
2019-03-16T04:45:06.913Z,8.00
2019-03-16T04:46:06.923Z,7.99
2019-03-16T04:47:06.903Z,8.00
2019-03-16T04:48:06.881Z,7.99
2019-03-16T04:49:06.873Z,8.04
2019-03-16T04:50:06.863Z,8.03
2019-03-16T04:51:06.878Z,8.04
2019-03-16T04:52:06.844Z,8.04
2019-03-16T04:53:06.832Z,7.99
2019-03-16T04:54:06.819Z,8.02
2019-03-16T04:55:06.810Z,8.03
2019-03-16T04:56:06.808Z,8.03
2019-03-16T04:57:06.804Z,8.00
2019-03-16T04:58:06.778Z,8.07
2019-03-16T04:59:06.765Z,8.03
2019-03-16T05:00:06.755Z,7.97
2019-03-16T05:01:06.771Z,7.96
2019-03-16T05:02:06.732Z,8.02
2019-03-16T05:03:14.260Z,7.99
2019-03-16T05:04:06.723Z,8.08
2019-03-16T05:05:06.702Z,7.97
2019-03-16T05:06:06.691Z,7.99
2019-03-16T05:07:06.702Z,7.96
2019-03-16T05:08:06.674Z,8.00
2019-03-16T05:09:06.665Z,8.02
2019-03-16T05:10:07.383Z,8.00
2019-03-16T05:11:06.642Z,8.02
2019-03-16T05:12:06.652Z,8.00
2019-03-16T05:13:06.615Z,8.03
2019-03-16T05:14:06.604Z,8.02
2019-03-16T05:15:06.598Z,8.02
2019-03-16T05:16:06.581Z,7.97
2019-03-16T05:17:06.593Z,8.07
2019-03-16T05:18:06.561Z,8.00
2019-03-16T05:19:06.552Z,7.96
2019-03-16T05:20:06.540Z,8.02
2019-03-16T05:21:06.531Z,7.94
2019-03-16T05:22:06.536Z,8.02
2019-03-16T05:23:06.529Z,7.96
2019-03-16T05:24:06.497Z,8.03
2019-03-16T05:25:06.489Z,8.00
2019-03-16T05:26:06.479Z,8.00
2019-03-16T05:27:06.485Z,8.00
2019-03-16T05:28:06.455Z,7.96
2019-03-16T05:29:06.445Z,7.93
2019-03-16T05:30:06.434Z,7.97
2019-03-16T05:31:06.424Z,8.00
2019-03-16T05:32:06.433Z,7.99
2019-03-16T05:33:06.417Z,7.96
2019-03-16T05:34:06.390Z,8.04
2019-03-16T05:35:06.380Z,7.96
2019-03-16T05:36:06.369Z,7.97
2019-03-16T05:37:06.375Z,7.96
2019-03-16T05:38:06.347Z,7.99
2019-03-16T05:39:13.417Z,8.00
2019-03-16T05:40:06.334Z,8.03
2019-03-16T05:41:06.315Z,7.97
2019-03-16T05:42:06.350Z,7.96
2019-03-16T05:43:06.302Z,8.03
2019-03-16T05:44:06.299Z,8.00
2019-03-16T05:45:06.273Z,7.92
2019-03-16T05:46:06.261Z,7.87
2019-03-16T05:47:06.250Z,8.00
2019-03-16T05:48:06.266Z,7.99
2019-03-16T05:49:06.230Z,8.00
2019-03-16T05:50:06.221Z,8.00
2019-03-16T05:51:06.208Z,7.94
2019-03-16T05:52:06.197Z,7.99
2019-03-16T05:53:06.211Z,7.96
2019-03-16T05:54:06.179Z,7.92
2019-03-16T05:55:06.167Z,7.90
2019-03-16T05:56:06.154Z,7.93
2019-03-16T05:57:06.144Z,7.93
2019-03-16T05:58:06.157Z,7.90
2019-03-16T05:59:06.128Z,7.92
2019-03-16T06:00:09.466Z,7.94
2019-03-16T06:01:06.107Z,7.92
2019-03-16T06:02:06.093Z,7.94
2019-03-16T06:03:06.081Z,7.96
2019-03-16T06:04:06.103Z,7.99
2019-03-16T06:05:11.094Z,7.96
2019-03-16T06:06:07.048Z,7.90
2019-03-16T06:07:06.043Z,7.92
2019-03-16T06:08:06.035Z,7.99
2019-03-16T06:09:06.033Z,7.85
2019-03-16T06:10:06.006Z,7.94
2019-03-16T06:11:05.995Z,7.99
2019-03-16T06:12:05.987Z,7.94
2019-03-16T06:13:05.972Z,7.87
2019-03-16T06:14:05.999Z,7.84
2019-03-16T06:15:05.950Z,7.97
2019-03-16T06:16:05.939Z,7.90
2019-03-16T06:17:05.928Z,7.94
2019-03-16T06:18:05.925Z,7.97
2019-03-16T06:19:05.910Z,7.92
2019-03-16T06:20:05.916Z,7.93
2019-03-16T06:21:05.886Z,7.92
2019-03-16T06:22:05.883Z,7.94
2019-03-16T06:23:05.865Z,7.92
2019-03-16T06:24:05.858Z,7.87
2019-03-16T06:25:05.867Z,7.89
2019-03-16T06:26:05.833Z,7.97
2019-03-16T06:27:05.824Z,7.99
2019-03-16T06:28:05.811Z,7.92
2019-03-16T06:29:05.801Z,7.85
2019-03-16T06:30:05.827Z,7.94
2019-03-16T06:31:05.787Z,7.89
2019-03-16T06:32:05.770Z,7.87
2019-03-16T06:33:05.758Z,7.93
2019-03-16T06:34:05.749Z,7.94
2019-03-16T06:35:05.740Z,7.89
2019-03-16T06:36:05.751Z,7.89
2019-03-16T06:37:05.716Z,7.93
2019-03-16T06:38:05.703Z,7.99
2019-03-16T06:39:05.694Z,7.99
2019-03-16T06:40:05.694Z,8.03
2019-03-16T06:41:05.698Z,7.97
2019-03-16T06:42:05.661Z,8.00
2019-03-16T06:43:05.652Z,7.96
2019-03-16T06:44:05.641Z,8.03
2019-03-16T06:45:05.639Z,8.00
2019-03-16T06:46:05.708Z,8.00
2019-03-16T06:47:05.626Z,8.07
2019-03-16T06:48:05.603Z,8.12
2019-03-16T06:49:05.592Z,8.12
2019-03-16T06:50:05.595Z,8.18
2019-03-16T06:51:05.566Z,8.26
2019-03-16T06:52:05.572Z,8.32
2019-03-16T06:53:05.549Z,8.29
2019-03-16T06:54:05.541Z,8.47
2019-03-16T06:55:05.526Z,8.57
2019-03-16T06:56:05.518Z,8.62
2019-03-16T06:57:05.538Z,8.71
2019-03-16T06:58:05.494Z,8.73
2019-03-16T06:59:05.478Z,8.79
2019-03-16T07:00:05.468Z,8.76
2019-03-16T07:01:05.464Z,8.83
2019-03-16T07:02:05.450Z,8.83
2019-03-16T07:03:05.462Z,8.87
2019-03-16T07:04:05.428Z,8.84
2019-03-16T07:05:05.420Z,8.93
2019-03-16T07:06:05.408Z,8.83
2019-03-16T07:07:05.401Z,8.94
2019-03-16T07:08:05.406Z,9.02
2019-03-16T07:09:05.376Z,8.97
2019-03-16T07:10:05.371Z,9.04
2019-03-16T07:11:05.350Z,9.13
2019-03-16T07:12:05.349Z,9.09
2019-03-16T07:13:05.359Z,9.02
2019-03-16T07:14:05.322Z,9.09
2019-03-16T07:15:05.307Z,9.09
2019-03-16T07:16:05.302Z,9.02
2019-03-16T07:17:05.291Z,9.09
2019-03-16T07:18:05.278Z,9.23
2019-03-16T07:19:05.283Z,9.16
2019-03-16T07:20:05.257Z,9.15
2019-03-16T07:21:05.248Z,9.18
2019-03-16T07:22:05.233Z,9.20
2019-03-16T07:23:05.226Z,9.28
2019-03-16T07:24:05.236Z,9.21
2019-03-16T07:25:05.199Z,9.21
2019-03-16T07:26:14.833Z,9.30
2019-03-16T07:27:06.178Z,9.32
2019-03-16T07:28:05.172Z,9.25
2019-03-16T07:29:05.178Z,9.28
2019-03-16T07:30:05.148Z,9.35
2019-03-16T07:31:05.138Z,9.42
2019-03-16T07:32:05.125Z,9.35
2019-03-16T07:33:05.118Z,9.40
2019-03-16T07:34:05.102Z,9.39
2019-03-16T07:35:05.113Z,9.38
2019-03-16T07:36:05.081Z,9.35
2019-03-16T07:37:05.075Z,9.45
2019-03-16T07:38:05.059Z,9.42
2019-03-16T07:39:05.049Z,9.46
2019-03-16T07:40:05.059Z,9.52
2019-03-16T07:41:05.027Z,9.50
2019-03-16T07:42:05.021Z,9.52
2019-03-16T07:43:05.005Z,9.52
2019-03-16T07:44:04.996Z,9.49
2019-03-16T07:45:08.382Z,9.50
2019-03-16T07:46:04.974Z,9.50
2019-03-16T07:47:04.971Z,9.43
2019-03-16T07:48:04.951Z,9.53
2019-03-16T07:49:04.942Z,9.40
2019-03-16T07:50:04.934Z,9.43
2019-03-16T07:51:04.944Z,9.48
2019-03-16T07:52:04.942Z,9.53
2019-03-16T07:53:04.901Z,9.48
2019-03-16T07:54:04.887Z,9.53
2019-03-16T07:55:04.901Z,9.56
2019-03-16T07:56:04.889Z,9.53
2019-03-16T07:57:04.862Z,9.57
2019-03-16T07:58:04.846Z,9.45
2019-03-16T07:59:04.835Z,9.58
2019-03-16T08:00:04.829Z,9.52
2019-03-16T08:01:04.813Z,9.48
2019-03-16T08:02:04.824Z,9.61
2019-03-16T08:03:04.793Z,9.56
2019-03-16T08:04:04.781Z,9.64
2019-03-16T08:05:17.275Z,9.56
2019-03-16T08:06:05.763Z,9.57
2019-03-16T08:07:04.765Z,9.49
2019-03-16T08:08:04.739Z,9.56
2019-03-16T08:09:04.775Z,9.52
2019-03-16T08:10:04.716Z,9.53
2019-03-16T08:11:04.705Z,9.46
2019-03-16T08:12:04.712Z,9.49
2019-03-16T08:13:04.701Z,9.46
2019-03-16T08:14:04.707Z,9.52
2019-03-16T08:15:04.664Z,9.57
2019-03-16T08:16:04.665Z,9.56
2019-03-16T08:17:04.642Z,9.56
2019-03-16T08:18:07.679Z,9.60
2019-03-16T08:19:04.639Z,9.66
2019-03-16T08:20:04.631Z,9.63
2019-03-16T08:21:04.621Z,9.64
2019-03-16T08:22:04.586Z,9.61
2019-03-16T08:23:04.663Z,9.61
2019-03-16T08:24:04.593Z,9.61
2019-03-16T08:25:04.553Z,9.63
2019-03-16T08:26:04.543Z,9.71
2019-03-16T08:27:07.409Z,9.75
2019-03-16T08:28:04.593Z,9.81
2019-03-16T08:29:04.515Z,9.78
2019-03-16T08:30:04.519Z,9.73
2019-03-16T08:31:04.505Z,9.73
2019-03-16T08:32:04.478Z,9.76
2019-03-16T08:33:04.503Z,9.76
2019-03-16T08:34:04.458Z,9.79
2019-03-16T08:35:04.448Z,9.75
2019-03-16T08:36:04.439Z,9.78
2019-03-16T08:37:04.424Z,9.73
2019-03-16T08:38:04.438Z,9.73
2019-03-16T08:39:04.403Z,9.78
2019-03-16T08:40:04.393Z,9.75
2019-03-16T08:41:04.381Z,9.64
2019-03-16T08:42:04.379Z,9.68
2019-03-16T08:43:04.379Z,9.66
2019-03-16T08:44:04.350Z,9.66
2019-03-16T08:45:04.338Z,9.60
2019-03-16T08:46:04.333Z,9.61
2019-03-16T08:47:04.317Z,9.76
2019-03-16T08:48:04.411Z,9.71
2019-03-16T08:49:04.295Z,9.68
2019-03-16T08:50:04.318Z,9.78
2019-03-16T08:51:04.280Z,9.78
2019-03-16T08:52:04.264Z,9.82
2019-03-16T08:53:04.274Z,9.78
2019-03-16T08:54:04.241Z,9.76
2019-03-16T08:55:04.237Z,9.76
2019-03-16T08:56:04.226Z,9.78
2019-03-16T08:57:04.210Z,9.79
2019-03-16T08:58:06.387Z,9.82
2019-03-16T08:59:04.191Z,9.78
2019-03-16T09:00:04.181Z,9.81
2019-03-16T09:01:04.175Z,9.78
2019-03-16T09:02:04.156Z,9.78
2019-03-16T09:03:04.143Z,9.82
2019-03-16T09:04:04.151Z,9.78
2019-03-16T09:05:04.136Z,9.78
2019-03-16T09:06:04.113Z,9.81
2019-03-16T09:07:04.104Z,9.88
2019-03-16T09:08:04.092Z,9.89
2019-03-16T09:09:04.102Z,9.94
2019-03-16T09:10:04.087Z,9.88
2019-03-16T09:11:04.076Z,9.79
2019-03-16T09:12:04.048Z,9.91
2019-03-16T09:13:04.038Z,9.89
2019-03-16T09:14:04.026Z,9.86
2019-03-16T09:15:04.035Z,9.96
2019-03-16T09:16:04.007Z,9.94
2019-03-16T09:17:03.994Z,9.97
2019-03-16T09:18:03.984Z,9.97
2019-03-16T09:19:03.974Z,9.93
2019-03-16T09:20:03.985Z,9.94
2019-03-16T09:21:03.965Z,9.99
2019-03-16T09:22:03.940Z,9.96
2019-03-16T09:23:03.936Z,10.10
2019-03-16T09:24:03.921Z,10.09
2019-03-16T09:25:03.936Z,10.18
2019-03-16T09:26:03.899Z,10.22
2019-03-16T09:27:03.889Z,10.32
2019-03-16T09:28:03.875Z,10.26
2019-03-16T09:29:14.490Z,10.34
2019-03-16T09:30:04.900Z,10.43
2019-03-16T09:31:03.843Z,10.43
2019-03-16T09:32:03.837Z,10.53
2019-03-16T09:33:03.874Z,10.60
2019-03-16T09:34:03.810Z,10.68
2019-03-16T09:35:03.801Z,10.60
2019-03-16T09:36:03.812Z,10.65
2019-03-16T09:37:03.783Z,10.65
2019-03-16T09:38:05.283Z,10.62
2019-03-16T09:39:03.755Z,10.58
2019-03-16T09:40:03.745Z,10.68
2019-03-16T09:41:03.763Z,10.76
2019-03-16T09:42:03.724Z,10.73
2019-03-16T09:43:03.716Z,10.71
2019-03-16T09:44:03.706Z,10.71
2019-03-16T09:45:03.695Z,10.77
2019-03-16T09:46:03.683Z,10.83
2019-03-16T09:47:03.701Z,10.84
2019-03-16T09:48:03.658Z,10.88
2019-03-16T09:49:03.661Z,10.88
2019-03-16T09:50:03.645Z,10.84
2019-03-16T09:51:03.630Z,10.96
2019-03-16T09:52:03.652Z,10.88
2019-03-16T09:53:03.604Z,10.92
2019-03-16T09:54:03.598Z,10.83
2019-03-16T09:55:03.595Z,10.88
2019-03-16T09:56:03.588Z,10.88
2019-03-16T09:57:04.528Z,10.81
2019-03-16T09:58:03.573Z,10.83
2019-03-16T09:59:03.544Z,10.78
2019-03-16T10:00:03.538Z,10.83
2019-03-16T10:01:03.523Z,10.77
2019-03-16T10:02:03.578Z,10.83
2019-03-16T10:03:03.536Z,10.74
2019-03-16T10:04:03.499Z,10.80
2019-03-16T10:05:03.491Z,10.76
2019-03-16T10:06:03.470Z,10.74
2019-03-16T10:07:03.456Z,10.73
2019-03-16T10:08:03.446Z,10.74
2019-03-16T10:09:03.456Z,10.77
2019-03-16T10:10:03.425Z,10.71
2019-03-16T10:11:03.413Z,10.76
2019-03-16T10:12:03.407Z,10.66
2019-03-16T10:13:03.401Z,10.81
2019-03-16T10:14:03.418Z,10.74
2019-03-16T10:15:03.399Z,10.78
2019-03-16T10:16:03.363Z,10.74
2019-03-16T10:17:03.350Z,10.77
2019-03-16T10:18:03.341Z,10.76
2019-03-16T10:19:03.338Z,10.74
2019-03-16T10:20:03.342Z,10.78
2019-03-16T10:21:03.322Z,10.81
2019-03-16T10:22:03.296Z,10.94
2019-03-16T10:23:03.386Z,10.96
2019-03-16T10:24:03.285Z,10.98
2019-03-16T10:25:03.295Z,11.06
2019-03-16T10:26:03.252Z,10.98
2019-03-16T10:27:03.246Z,10.96
2019-03-16T10:28:03.235Z,11.01
2019-03-16T10:29:03.226Z,11.03
2019-03-16T10:30:03.219Z,11.03
2019-03-16T10:31:03.227Z,11.11
2019-03-16T10:32:03.195Z,11.07
2019-03-16T10:33:03.180Z,11.11
2019-03-16T10:34:03.183Z,11.10
2019-03-16T10:35:03.159Z,11.16
2019-03-16T10:36:03.145Z,11.19
2019-03-16T10:37:03.163Z,11.20
2019-03-16T10:38:03.121Z,11.24
2019-03-16T10:39:03.121Z,11.29
2019-03-16T10:40:03.107Z,11.28
2019-03-16T10:41:03.095Z,11.28
2019-03-16T10:42:03.103Z,11.24
2019-03-16T10:43:03.080Z,11.39
2019-03-16T10:44:03.058Z,11.38
2019-03-16T10:45:03.057Z,11.46
2019-03-16T10:46:03.049Z,11.61
2019-03-16T10:47:03.069Z,11.52
2019-03-16T10:48:03.019Z,11.56
2019-03-16T10:49:03.015Z,11.68
2019-03-16T10:50:03.014Z,11.70
2019-03-16T10:51:02.997Z,11.71
2019-03-16T10:52:02.970Z,11.70
2019-03-16T10:53:02.993Z,11.77
2019-03-16T10:54:02.952Z,11.67
2019-03-16T10:55:02.984Z,11.56
2019-03-16T10:56:02.934Z,11.68
2019-03-16T10:57:04.352Z,11.54
2019-03-16T10:58:02.914Z,11.59
2019-03-16T10:59:02.918Z,11.43
2019-03-16T11:00:02.892Z,11.49
2019-03-16T11:01:02.880Z,11.46
2019-03-16T11:02:02.866Z,11.47
2019-03-16T11:03:02.855Z,11.62
2019-03-16T11:04:02.867Z,11.56
2019-03-16T11:05:02.832Z,11.85
2019-03-16T11:06:02.823Z,11.78
2019-03-16T11:07:02.817Z,11.87
2019-03-16T11:08:02.832Z,11.86
2019-03-16T11:09:02.822Z,11.78
2019-03-16T11:10:02.813Z,11.82
2019-03-16T11:11:02.785Z,11.75
2019-03-16T11:12:02.847Z,11.82
2019-03-16T11:13:02.789Z,11.80
2019-03-16T11:14:02.807Z,11.70
2019-03-16T11:15:02.729Z,11.82
2019-03-16T11:16:02.773Z,11.65
2019-03-16T11:17:02.725Z,11.59
2019-03-16T11:18:02.713Z,11.68
2019-03-16T11:19:02.720Z,11.62
2019-03-16T11:20:02.697Z,11.64
2019-03-16T11:21:02.692Z,11.67
2019-03-16T11:22:02.685Z,11.71
2019-03-16T11:23:02.699Z,11.74
2019-03-16T11:24:02.650Z,11.75
2019-03-16T11:25:02.629Z,11.74
2019-03-16T11:26:02.612Z,11.83
2019-03-16T11:27:02.595Z,11.80
2019-03-16T11:28:02.582Z,11.82
2019-03-16T11:29:08.890Z,11.71
2019-03-16T11:30:03.562Z,11.78
2019-03-16T11:31:02.551Z,11.71
2019-03-16T11:32:02.545Z,11.83
2019-03-16T11:33:02.556Z,11.74
2019-03-16T11:34:02.519Z,11.72
2019-03-16T11:35:02.549Z,11.70
2019-03-16T11:36:02.563Z,11.68
2019-03-16T11:37:02.497Z,11.64
2019-03-16T11:38:02.502Z,11.67
2019-03-16T11:39:02.469Z,11.65
2019-03-16T11:40:02.481Z,11.67
2019-03-16T11:41:54.570Z,11.67
2019-03-16T11:42:54.498Z,11.59
2019-03-16T11:43:54.487Z,11.70
2019-03-16T11:44:54.468Z,11.68
2019-03-16T11:45:54.484Z,11.71
2019-03-16T11:46:54.447Z,11.52
2019-03-16T11:47:54.469Z,11.67
2019-03-16T11:48:54.457Z,11.64
2019-03-16T11:49:54.423Z,11.50
2019-03-16T11:50:54.428Z,11.52
2019-03-16T11:51:54.391Z,11.53
2019-03-16T11:52:54.382Z,11.47
2019-03-16T11:53:54.398Z,11.39
2019-03-16T11:54:54.400Z,11.46
2019-03-16T11:55:54.670Z,11.39
2019-03-16T11:56:54.338Z,11.41
2019-03-16T11:57:54.329Z,11.46
2019-03-16T11:58:54.321Z,11.47
2019-03-16T11:59:54.309Z,11.38
2019-03-16T12:00:54.294Z,11.39
2019-03-16T12:02:04.804Z,11.46
2019-03-16T12:02:55.275Z,11.43
2019-03-16T12:03:54.265Z,11.53
2019-03-16T12:04:54.279Z,11.47
2019-03-16T12:05:54.241Z,11.46
2019-03-16T12:06:54.301Z,11.50
2019-03-16T12:07:54.369Z,11.44
2019-03-16T12:08:54.209Z,11.57
2019-03-16T12:09:54.202Z,11.52
2019-03-16T12:10:54.272Z,11.57
2019-03-16T12:11:54.214Z,11.59
2019-03-16T12:12:54.174Z,11.67
2019-03-16T12:13:54.188Z,11.67
2019-03-16T12:14:54.152Z,11.68
2019-03-16T12:15:54.134Z,11.71
2019-03-16T12:16:54.149Z,11.68
2019-03-16T12:17:54.111Z,11.75
2019-03-16T12:18:54.100Z,11.75
2019-03-16T12:19:54.090Z,11.65
2019-03-16T12:20:54.087Z,11.64
2019-03-16T12:21:54.092Z,11.65
2019-03-16T12:22:54.058Z,11.52
2019-03-16T12:23:54.047Z,11.56
2019-03-16T12:24:54.046Z,11.50
2019-03-16T12:25:54.026Z,11.46
2019-03-16T12:26:54.118Z,11.43
2019-03-16T12:27:54.056Z,11.46
2019-03-16T12:28:53.995Z,11.41
2019-03-16T12:29:53.995Z,11.34
2019-03-16T12:30:53.973Z,11.34
2019-03-16T12:31:53.961Z,11.32
2019-03-16T12:32:53.972Z,11.34
2019-03-16T12:33:56.432Z,11.27
2019-03-16T12:34:53.928Z,11.39
2019-03-16T12:35:53.918Z,11.28
2019-03-16T12:36:53.929Z,11.21
2019-03-16T12:37:53.897Z,11.25
2019-03-16T12:38:53.892Z,11.27
2019-03-16T12:39:53.876Z,11.27
2019-03-16T12:40:53.867Z,11.27
2019-03-16T12:41:53.873Z,11.36
2019-03-16T12:42:53.876Z,11.31
2019-03-16T12:43:53.834Z,11.29
2019-03-16T12:44:53.820Z,11.29
2019-03-16T12:45:53.809Z,11.17
2019-03-16T12:46:54.740Z,11.21
2019-03-16T12:47:53.788Z,11.21
2019-03-16T12:48:53.805Z,11.25
2019-03-16T12:49:53.787Z,11.17
2019-03-16T12:50:54.446Z,11.20
2019-03-16T12:51:53.745Z,11.19
2019-03-16T12:52:53.763Z,11.20
2019-03-16T12:53:53.724Z,11.21
2019-03-16T12:54:53.714Z,11.24
2019-03-16T12:55:53.709Z,11.31
2019-03-16T12:56:53.692Z,11.25
2019-03-16T12:57:53.705Z,11.31
2019-03-16T12:58:53.673Z,11.16
2019-03-16T12:59:53.658Z,11.16
2019-03-16T13:00:53.649Z,11.21
2019-03-16T13:01:53.657Z,11.17
2019-03-16T13:02:53.627Z,11.17
2019-03-16T13:03:53.619Z,11.19
2019-03-16T13:04:53.609Z,11.19
2019-03-16T13:05:53.600Z,11.13
2019-03-16T13:06:53.611Z,11.16
2019-03-16T13:07:53.573Z,11.10
2019-03-16T13:08:53.561Z,11.16
2019-03-16T13:09:53.551Z,11.13
2019-03-16T13:10:53.548Z,11.16